Time;durP1;ratioP1;P1;durP2;ratioP2;P2;SDS_P1;SDS_P2;PMS_P1;PMS_P2;Temp;Humidity;BMP_temperature;BMP_pressure;BME280_temperature;BME280_humidity;BME280_pressure;Samples;Min_cycle;Max_cycle;Signal;HPM_P1;HPM_P2
2024/03/01 00:01:24;;;;;;;;;;;;;;;15.56;51.64;101284.09;5035373;28;1067;-57
2024/03/01 00:03:49;;;;;;;;;;;;;;;16.59;49.52;101280.59;5034337;28;1393;-58
2024/03/01 00:06:15;;;;;;;;;;;;;;;17.60;47.01;101263.41;5022433;28;921;-57
2024/03/01 00:08:40;;;;;;;;;;;;;;;16.57;49.31;101238.81;5036240;28;1083;-57
2024/03/01 00:11:06;;;;;;;;;;;;;;;16.08;50.30;101247.97;5030253;28;1102;-58
2024/03/01 00:13:31;;;;;;;;;;;;;;;15.82;50.97;101265.25;5028298;28;1111;-59
2024/03/01 00:15:57;;;;;;;;;;;;;;;15.55;51.72;101274.22;5036020;28;1230;-61
2024/03/01 00:18:23;;;;;;;;;;;;;;;15.67;51.71;101258.47;5035299;28;1987;-61
2024/03/01 00:20:50;;;;;;;;;;;;;;;17.20;47.79;101235.44;5035932;28;1110;-61
2024/03/01 00:23:16;;;;;;;;;;;;;;;16.99;48.16;101239.97;5036056;28;1047;-61
2024/03/01 00:25:42;;;;;;;;;;;;;;;16.23;50.04;101241.00;5035984;28;1115;-61
2024/03/01 00:28:07;;;;;;;;;;;;;;;15.90;50.78;101240.09;5038561;28;896;-61
2024/03/01 00:30:33;;;;;;;;;;;;;;;15.60;51.41;101230.44;5039090;28;1075;-61
2024/03/01 00:32:59;;;;;;;;;;;;;;;15.61;51.88;101229.31;5039854;28;1051;-61
2024/03/01 00:35:24;;;;;;;;;;;;;;;17.15;48.13;101226.34;5039191;28;1099;-61
2024/03/01 00:37:50;;;;;;;;;;;;;;;16.66;49.03;101214.47;5039382;28;1906;-61
2024/03/01 00:40:16;;;;;;;;;;;;;;;16.10;50.31;101216.72;5034511;28;1059;-61
2024/03/01 00:42:42;;;;;;;;;;;;;;;15.80;51.03;101240.81;5019524;28;1071;-61
2024/03/01 00:45:08;;;;;;;;;;;;;;;15.55;51.84;101230.34;5037964;28;1146;-60
2024/03/01 00:47:33;;;;;;;;;;;;;;;16.66;49.33;101217.22;5039159;28;1110;-61
2024/03/01 00:49:59;;;;;;;;;;;;;;;17.41;47.15;101214.38;5039200;28;1122;-61
2024/03/01 00:52:24;;;;;;;;;;;;;;;16.29;50.11;101193.31;5027642;28;849;-61
2024/03/01 00:54:50;;;;;;;;;;;;;;;15.97;50.83;101207.81;5024272;28;1303;-60
2024/03/01 00:57:15;;;;;;;;;;;;;;;15.69;51.20;101222.56;5037798;28;1898;-60
2024/03/01 00:59:41;;;;;;;;;;;;;;;15.49;51.68;101250.56;5033674;28;1175;-60
2024/03/01 01:02:08;;;;;;;;;;;;;;;15.45;51.89;101231.06;5031097;28;1138;-59
2024/03/01 01:04:34;;;;;;;;;;;;;;;16.96;48.35;101191.06;5038343;28;1099;-59
2024/03/01 01:06:59;;;;;;;;;;;;;;;17.53;46.64;101196.81;5038815;28;1083;-59
2024/03/01 01:09:25;;;;;;;;;;;;;;;16.52;49.27;101191.28;5025552;28;1171;-58
2024/03/01 01:11:50;;;;;;;;;;;;;;;16.00;50.70;101185.34;5038522;28;1067;-59
2024/03/01 01:14:16;;;;;;;;;;;;;;;15.73;51.32;101186.16;5038462;28;1040;-61
2024/03/01 01:16:41;;;;;;;;;;;;;;;15.56;51.44;101194.47;5039296;28;914;-61
2024/03/01 01:19:07;;;;;;;;;;;;;;;16.73;48.97;101201.34;5037997;28;1992;-61
2024/03/01 01:21:33;;;;;;;;;;;;;;;17.55;46.76;101191.88;5038791;28;1040;-60
2024/03/01 01:23:58;;;;;;;;;;;;;;;16.51;49.08;101176.75;5038681;28;1056;-60
2024/03/01 01:26:24;;;;;;;;;;;;;;;16.10;50.42;101170.09;5038373;28;1165;-60
2024/03/01 01:28:53;;;;;;;;;;;;;;;15.77;51.13;101180.16;5038072;28;1079;-60
2024/03/01 01:31:18;;;;;;;;;;;;;;;15.56;51.54;101183.50;5038950;28;1115;-60
2024/03/01 01:33:44;;;;;;;;;;;;;;;15.97;50.98;101165.84;5038003;28;1079;-60
2024/03/01 01:36:10;;;;;;;;;;;;;;;17.38;47.35;101153.63;5027578;28;1175;-60
2024/03/01 01:38:36;;;;;;;;;;;;;;;16.83;48.31;101147.53;5036589;28;1983;-60
2024/03/01 01:41:02;;;;;;;;;;;;;;;16.18;50.19;101153.97;5037984;28;1037;-60
2024/03/01 01:43:27;;;;;;;;;;;;;;;15.85;50.64;101147.66;5038197;28;1082;-60
2024/03/01 01:45:54;;;;;;;;;;;;;;;15.59;51.31;101148.44;5038366;28;1047;-59
2024/03/01 01:48:19;;;;;;;;;;;;;;;15.42;51.77;101146.63;5033311;28;1154;-59
2024/03/01 01:50:45;;;;;;;;;;;;;;;16.54;49.49;101151.50;5029366;28;1039;-59
2024/03/01 01:53:10;;;;;;;;;;;;;;;17.43;47.02;101142.63;5037970;28;1091;-61
2024/03/01 01:55:36;;;;;;;;;;;;;;;16.43;49.23;101142.34;5037158;28;1277;-62
2024/03/01 01:58:02;;;;;;;;;;;;;;;15.90;50.54;101135.91;5038072;28;1907;-60
2024/03/01 02:00:28;;;;;;;;;;;;;;;15.74;51.04;101138.47;5025539;28;1016;-58
2024/03/01 02:02:54;;;;;;;;;;;;;;;16.10;50.68;101128.94;5036476;28;1080;-59
2024/03/01 02:05:19;;;;;;;;;;;;;;;17.45;47.16;101141.25;5037732;28;872;-60
2024/03/01 02:07:48;;;;;;;;;;;;;;;16.62;48.75;101141.97;5037936;28;1133;-59
2024/03/01 02:10:16;;;;;;;;;;;;;;;16.01;50.49;101134.09;5037493;28;1055;-60
2024/03/01 02:12:54;;;;;;;;;;;;;;;15.73;51.01;101141.47;5019048;28;1210;-60
2024/03/01 02:15:20;;;;;;;;;;;;;;;15.53;51.73;101128.38;5031724;28;1135;-60
2024/03/01 02:17:45;;;;;;;;;;;;;;;16.17;50.35;101130.38;5035729;28;1910;-61
2024/03/01 02:20:11;;;;;;;;;;;;;;;17.43;46.94;101131.63;5036962;28;1124;-61
2024/03/01 02:22:37;;;;;;;;;;;;;;;16.83;48.55;101142.06;5024660;28;1040;-61
2024/03/01 02:25:04;;;;;;;;;;;;;;;16.18;49.84;101137.50;5036676;28;1238;-60
2024/03/01 02:27:29;;;;;;;;;;;;;;;15.81;50.87;101142.94;5031403;28;1238;-60
2024/03/01 02:29:55;;;;;;;;;;;;;;;15.65;51.48;101142.75;5036944;28;1029;-60
2024/03/01 02:32:20;;;;;;;;;;;;;;;15.86;51.08;101140.25;5029943;28;1087;-60
2024/03/01 02:34:46;;;;;;;;;;;;;;;17.35;47.45;101137.63;5031035;28;1027;-61
2024/03/01 02:37:12;;;;;;;;;;;;;;;16.91;48.24;101134.19;5036857;28;1901;-59
2024/03/01 02:39:37;;;;;;;;;;;;;;;16.18;49.90;101125.72;5036700;28;1171;-60
2024/03/01 02:42:03;;;;;;;;;;;;;;;15.88;50.53;101125.19;5030094;28;1107;-60
2024/03/01 02:44:28;;;;;;;;;;;;;;;15.67;51.14;101124.13;5031009;28;1198;-59
2024/03/01 02:46:54;;;;;;;;;;;;;;;15.44;51.81;101118.97;5036971;28;1063;-60
2024/03/01 02:49:19;;;;;;;;;;;;;;;16.97;48.26;101113.06;5036473;28;1059;-60
2024/03/01 02:51:45;;;;;;;;;;;;;;;17.04;47.58;101121.03;5036289;28;1048;-59
2024/03/01 02:54:11;;;;;;;;;;;;;;;16.21;49.71;101125.19;5036898;28;1103;-61
2024/03/01 02:56:36;;;;;;;;;;;;;;;15.90;50.57;101116.69;5029864;28;1107;-60
2024/03/01 02:59:02;;;;;;;;;;;;;;;15.62;51.52;101128.75;5030734;28;1910;-61
2024/03/01 03:01:29;;;;;;;;;;;;;;;15.57;51.67;101121.28;5036374;28;1188;-61
2024/03/01 03:03:55;;;;;;;;;;;;;;;17.18;47.55;101113.13;5036702;28;1194;-60
2024/03/01 03:06:21;;;;;;;;;;;;;;;16.91;48.08;101106.72;5036656;28;1031;-61
2024/03/01 03:08:46;;;;;;;;;;;;;;;16.22;49.71;101110.38;5023621;28;1183;-60
2024/03/01 03:11:13;;;;;;;;;;;;;;;15.76;50.96;101115.44;5037050;28;1159;-58
2024/03/01 03:13:39;;;;;;;;;;;;;;;15.60;51.42;101109.81;5036831;28;1078;-58
2024/03/01 03:16:04;;;;;;;;;;;;;;;16.47;49.40;101122.63;5036619;28;1083;-59
2024/03/01 03:18:30;;;;;;;;;;;;;;;17.53;46.81;101114.31;5036477;28;1902;-59
2024/03/01 03:20:55;;;;;;;;;;;;;;;16.49;49.07;101114.97;5029705;28;1027;-59
2024/03/01 03:23:21;;;;;;;;;;;;;;;15.94;50.45;101098.63;5030648;28;1165;-59
2024/03/01 03:25:46;;;;;;;;;;;;;;;15.71;50.95;101103.34;5036955;28;1107;-59
2024/03/01 03:28:14;;;;;;;;;;;;;;;15.53;51.39;101107.28;5035679;28;1182;-59
2024/03/01 03:30:39;;;;;;;;;;;;;;;16.28;49.92;101103.00;5036103;28;1047;-59
2024/03/01 03:33:05;;;;;;;;;;;;;;;17.53;46.80;101106.06;5035845;28;1043;-59
2024/03/01 03:35:30;;;;;;;;;;;;;;;16.63;48.61;101099.66;5036767;28;1078;-59
2024/03/01 03:37:56;;;;;;;;;;;;;;;16.10;49.96;101096.84;5035865;28;1930;-60
2024/03/01 03:40:21;;;;;;;;;;;;;;;15.80;50.82;101091.94;5023099;28;1084;-59
2024/03/01 03:42:47;;;;;;;;;;;;;;;15.60;51.11;101095.25;5022621;28;1063;-60
2024/03/01 03:45:12;;;;;;;;;;;;;;;16.65;49.16;101096.63;5036065;28;1127;-60
2024/03/01 03:47:38;;;;;;;;;;;;;;;17.49;46.49;101088.47;5022692;28;1102;-59
2024/03/01 03:50:07;;;;;;;;;;;;;;;16.47;49.07;101090.53;5029656;28;1007;-59
2024/03/01 03:52:34;;;;;;;;;;;;;;;15.98;50.30;101087.97;5025604;28;1259;-60
2024/03/01 03:54:59;;;;;;;;;;;;;;;15.67;51.29;101090.41;5028324;28;1485;-60
2024/03/01 03:57:25;;;;;;;;;;;;;;;15.59;51.34;101094.44;5035583;28;1894;-59
2024/03/01 03:59:50;;;;;;;;;;;;;;;17.15;47.65;101102.69;5035826;28;1163;-61
2024/03/01 04:02:16;;;;;;;;;;;;;;;17.07;47.52;101099.34;5038191;28;1160;-58
2024/03/01 04:04:41;;;;;;;;;;;;;;;16.20;49.84;101096.94;5034245;28;1199;-59
2024/03/01 04:07:07;;;;;;;;;;;;;;;15.88;50.56;101089.53;5039961;28;1392;-59
2024/03/01 04:09:32;;;;;;;;;;;;;;;15.64;51.33;101086.28;5039783;28;1122;-58
2024/03/01 04:11:59;;;;;;;;;;;;;;;15.66;51.22;101081.34;5039795;28;1175;-54
2024/03/01 04:14:24;;;;;;;;;;;;;;;17.24;47.27;101081.84;5039611;28;1019;-55
2024/03/01 04:16:50;;;;;;;;;;;;;;;16.97;47.94;101093.84;5039772;28;1142;-56
2024/03/01 04:19:15;;;;;;;;;;;;;;;16.18;49.70;101098.28;5033438;28;1989;-54
2024/03/01 04:21:42;;;;;;;;;;;;;;;15.87;50.63;101095.28;5026776;28;991;-55
2024/03/01 04:24:11;;;;;;;;;;;;;;;15.61;51.49;101095.00;5024291;28;1135;-56
2024/03/01 04:26:37;;;;;;;;;;;;;;;15.68;51.18;101083.84;5038474;28;1309;-55
2024/03/01 04:29:03;;;;;;;;;;;;;;;17.21;47.48;101098.88;5034255;28;1504;-57
2024/03/01 04:31:29;;;;;;;;;;;;;;;16.96;47.78;101089.44;5039351;28;1344;-57
2024/03/01 04:33:54;;;;;;;;;;;;;;;16.16;49.75;101084.81;5039724;28;1154;-54
2024/03/01 04:36:20;;;;;;;;;;;;;;;15.89;50.46;101080.22;5025953;28;1090;-56
2024/03/01 04:38:46;;;;;;;;;;;;;;;15.62;51.05;101071.19;5039051;28;1914;-57
2024/03/01 04:41:18;;;;;;;;;;;;;;;15.68;51.26;101067.38;5039097;28;873;-59
2024/03/01 04:43:44;;;;;;;;;;;;;;;17.31;47.35;101071.41;5039412;28;1078;-56
2024/03/01 04:46:09;;;;;;;;;;;;;;;16.89;47.98;101064.13;5039546;28;1102;-55
2024/03/01 04:48:36;;;;;;;;;;;;;;;16.21;49.75;101075.78;5038891;28;1079;-56
2024/03/01 04:51:02;;;;;;;;;;;;;;;15.85;50.70;101075.50;5027689;28;1000;-55
2024/03/01 04:53:27;;;;;;;;;;;;;;;15.65;51.02;101078.88;5037322;28;1443;-56
2024/03/01 04:55:53;;;;;;;;;;;;;;;16.03;50.37;101088.84;5031856;28;1366;-55
2024/03/01 04:58:18;;;;;;;;;;;;;;;17.36;47.02;101084.31;5036623;28;1910;-52
2024/03/01 05:00:44;;;;;;;;;;;;;;;16.96;47.73;101092.19;5039298;28;1150;-59
2024/03/01 05:03:09;;;;;;;;;;;;;;;16.18;49.97;101095.53;5026181;28;1024;-53
2024/03/01 05:05:35;;;;;;;;;;;;;;;15.92;50.44;101084.34;5038373;28;1172;-58
2024/03/01 05:08:00;;;;;;;;;;;;;;;15.71;50.88;101092.38;5035410;28;2072;-54
2024/03/01 05:10:26;;;;;;;;;;;;;;;16.77;48.58;101078.88;5038809;28;1785;-54
2024/03/01 05:12:51;;;;;;;;;;;;;;;17.77;46.28;101073.41;5030066;28;1879;-58
2024/03/01 05:15:17;;;;;;;;;;;;;;;17.26;47.52;101072.22;5038574;28;2256;-55
2024/03/01 05:17:44;;;;;;;;;;;;;;;16.32;49.07;101082.19;5038045;28;2016;-55
2024/03/01 05:20:10;;;;;;;;;;;;;;;16.03;49.39;101080.63;5038563;28;2118;-55
2024/03/01 05:22:39;;;;;;;;;;;;;;;17.73;46.90;101084.09;5038455;28;1074;-52
2024/03/01 05:25:16;;;;;;;;;;;;;;;16.46;49.04;101077.06;5026326;28;1471;-54
2024/03/01 05:27:43;;;;;;;;;;;;;;;16.04;49.30;101086.91;5024681;28;1023;-56
2024/03/01 05:30:10;;;;;;;;;;;;;;;17.79;46.81;101088.53;5038404;28;905;-57
2024/03/01 05:32:37;;;;;;;;;;;;;;;17.01;48.39;101085.88;5038032;28;1110;-58
2024/03/01 05:35:03;;;;;;;;;;;;;;;16.33;48.68;101090.16;5038629;28;1206;-54
2024/03/01 05:37:29;;;;;;;;;;;;;;;16.20;48.25;101083.22;5034906;28;1953;-57
2024/03/01 05:39:54;;;;;;;;;;;;;;;16.78;48.82;101087.94;5028755;28;1193;-56
2024/03/01 05:42:20;;;;;;;;;;;;;;;17.57;47.39;101085.19;5037542;28;1171;-57
2024/03/01 05:44:46;;;;;;;;;;;;;;;16.37;49.00;101074.81;5038355;28;1186;-56
2024/03/01 05:47:11;;;;;;;;;;;;;;;16.53;49.35;101083.13;5034168;28;1174;-57
2024/03/01 05:49:37;;;;;;;;;;;;;;;17.69;47.11;101088.50;5019241;28;2528;-52
2024/03/01 05:52:03;;;;;;;;;;;;;;;16.68;48.45;101096.94;5038200;28;988;-57
2024/03/01 05:54:29;;;;;;;;;;;;;;;16.32;48.30;101091.22;5037674;28;1130;-55
2024/03/01 05:56:55;;;;;;;;;;;;;;;16.70;48.95;101105.72;5038035;28;1061;-57
2024/03/01 05:59:22;;;;;;;;;;;;;;;17.49;47.40;101105.81;5025019;28;1975;-57
2024/03/01 06:01:48;;;;;;;;;;;;;;;16.55;48.90;101103.75;5037815;28;1504;-58
2024/03/01 06:04:13;;;;;;;;;;;;;;;16.24;48.42;101091.72;5035160;28;1098;-58
2024/03/01 06:06:39;;;;;;;;;;;;;;;16.13;47.53;101100.97;5030644;28;1072;-52
2024/03/01 06:09:04;;;;;;;;;;;;;;;15.84;47.69;101109.53;5037467;28;1154;-58
2024/03/01 06:11:30;;;;;;;;;;;;;;;17.42;48.06;101116.25;5038171;28;1059;-56
2024/03/01 06:13:55;;;;;;;;;;;;;;;16.93;48.76;101123.75;5037605;28;1063;-56
2024/03/01 06:16:21;;;;;;;;;;;;;;;16.38;48.77;101136.84;5037582;28;1198;-58
2024/03/01 06:18:46;;;;;;;;;;;;;;;16.08;48.31;101143.72;5037356;28;1914;-57
2024/03/01 06:21:25;;;;;;;;;;;;;;;17.34;48.41;101150.56;5038051;28;1148;-57
2024/03/01 06:23:50;;;;;;;;;;;;;;;17.00;48.61;101150.97;5035601;28;1127;-53
2024/03/01 06:26:16;;;;;;;;;;;;;;;16.37;49.07;101143.44;5033549;28;1098;-53
2024/03/01 06:28:44;;;;;;;;;;;;;;;16.17;48.40;101146.00;5024081;28;1086;-54
2024/03/01 06:31:10;;;;;;;;;;;;;;;17.74;47.76;101154.53;5027080;28;892;-57
2024/03/01 06:33:35;;;;;;;;;;;;;;;16.70;49.01;101152.41;5034257;28;1230;-51
2024/03/01 06:36:01;;;;;;;;;;;;;;;16.47;48.53;101150.09;5036823;28;1106;-55
2024/03/01 06:38:27;;;;;;;;;;;;;;;16.65;49.17;101146.91;5036666;28;1909;-57
2024/03/01 06:40:52;;;;;;;;;;;;;;;18.19;46.55;101143.88;5036989;28;1167;-55
2024/03/01 06:43:18;;;;;;;;;;;;;;;16.83;48.88;101133.81;5036865;28;1103;-57
2024/03/01 06:45:43;;;;;;;;;;;;;;;16.49;48.52;101120.44;5024889;28;1365;-59
2024/03/01 06:48:09;;;;;;;;;;;;;;;16.90;49.18;101112.44;5036964;28;1079;-52
2024/03/01 06:50:35;;;;;;;;;;;;;;;17.87;47.06;101111.09;5036655;28;1051;-57
2024/03/01 06:53:00;;;;;;;;;;;;;;;16.84;48.43;101097.03;5036505;28;1151;-56
2024/03/01 06:55:26;;;;;;;;;;;;;;;16.38;48.81;101092.94;5036790;28;1209;-56
2024/03/01 06:57:52;;;;;;;;;;;;;;;17.71;47.65;101113.81;5036667;28;1914;-56
2024/03/01 07:00:17;;;;;;;;;;;;;;;17.06;48.60;101103.19;5026762;28;1112;-54
2024/03/01 07:02:43;;;;;;;;;;;;;;;16.54;48.47;101093.84;5020588;28;1158;-55
2024/03/01 07:05:09;;;;;;;;;;;;;;;17.07;48.84;101082.88;5036980;28;1082;-60
2024/03/01 07:07:36;;;;;;;;;;;;;;;17.48;47.92;101082.16;5032884;28;1074;-60
2024/03/01 07:10:02;;;;;;;;;;;;;;;16.61;48.85;101082.63;5017257;28;1088;-54
2024/03/01 07:12:28;;;;;;;;;;;;;;;17.35;48.62;101072.50;5033572;28;1127;-51
2024/03/01 07:14:53;;;;;;;;;;;;;;;18.58;45.39;101070.81;5036845;28;1055;-53
2024/03/01 07:17:19;;;;;;;;;;;;;;;17.20;47.96;101077.97;5036085;28;1910;-54
2024/03/01 07:19:44;;;;;;;;;;;;;;;16.69;47.96;101082.13;5036325;28;1131;-51
2024/03/01 07:22:10;;;;;;;;;;;;;;;16.60;48.26;101078.22;5036289;28;1188;-54
2024/03/01 07:24:35;;;;;;;;;;;;;;;18.28;46.60;101078.88;5035761;28;1340;-54
2024/03/01 07:27:01;;;;;;;;;;;;;;;17.06;48.34;101083.97;5036363;28;1079;-54
2024/03/01 07:29:28;;;;;;;;;;;;;;;16.72;48.23;101078.03;5031126;28;1217;-54
2024/03/01 07:31:54;;;;;;;;;;;;;;;16.52;47.56;101078.72;5036076;28;976;-55
2024/03/01 07:34:19;;;;;;;;;;;;;;;16.57;47.64;101087.81;5035477;28;1336;-57
2024/03/01 07:36:45;;;;;;;;;;;;;;;17.40;48.03;101090.94;5033777;28;1163;-50
2024/03/01 07:39:11;;;;;;;;;;;;;;;16.70;48.75;101104.91;5035698;28;1902;-58
2024/03/01 07:41:37;;;;;;;;;;;;;;;16.33;48.24;101098.38;5035786;28;1170;-60
2024/03/01 07:44:02;;;;;;;;;;;;;;;16.87;48.39;101115.72;5035425;28;1134;-59
2024/03/01 07:46:28;;;;;;;;;;;;;;;18.25;46.64;101109.72;5035911;28;1066;-59
2024/03/01 07:48:53;;;;;;;;;;;;;;;17.01;48.43;101102.34;5031254;28;1304;-60
2024/03/01 07:51:19;;;;;;;;;;;;;;;17.87;47.56;101105.59;5027325;28;1269;-57
2024/03/01 07:53:46;;;;;;;;;;;;;;;17.84;47.21;101111.63;5028183;28;1079;-56
2024/03/01 07:56:11;;;;;;;;;;;;;;;16.99;48.39;101107.28;5032308;28;1241;-58
2024/03/01 07:58:37;;;;;;;;;;;;;;;16.64;48.05;101100.50;5031680;28;1906;-57
2024/03/01 08:01:02;;;;;;;;;;;;;;;17.56;48.02;101092.63;5035732;28;1492;-59
2024/03/01 08:03:28;;;;;;;;;;;;;;;17.85;47.38;101097.63;5036183;28;1143;-56
2024/03/01 08:05:53;;;;;;;;;;;;;;;16.96;48.60;101094.91;5036162;28;952;-58
2024/03/01 08:08:39;;;;;;;;;;;;;;;16.84;48.85;101094.28;5022980;28;821;-58
2024/03/01 08:11:08;;;;;;;;;;;;;;;17.86;47.28;101099.25;5024747;28;1247;-59
2024/03/01 08:13:34;;;;;;;;;;;;;;;16.86;48.48;101092.09;5035137;28;1031;-57
2024/03/01 08:16:00;;;;;;;;;;;;;;;17.16;48.76;101107.09;5035954;28;1055;-57
2024/03/01 08:18:25;;;;;;;;;;;;;;;17.53;47.81;101089.56;5035100;28;1902;-57
2024/03/01 08:20:58;;;;;;;;;;;;;;;16.95;48.27;101097.94;5036092;28;1079;-59
2024/03/01 08:23:27;;;;;;;;;;;;;;;16.60;48.13;101092.78;5035942;28;1201;-57
2024/03/01 08:25:53;;;;;;;;;;;;;;;18.33;46.64;101094.59;5035758;28;1074;-53
2024/03/01 08:28:22;;;;;;;;;;;;;;;17.21;48.38;101096.94;5035364;28;1027;-62
2024/03/01 08:30:47;;;;;;;;;;;;;;;17.77;47.90;101089.91;5035367;28;1155;-61
2024/03/01 08:33:17;;;;;;;;;;;;;;;18.00;46.98;101083.03;5035243;28;1047;-61
2024/03/01 08:35:43;;;;;;;;;;;;;;;17.13;48.02;101075.47;5035655;28;1187;-60
2024/03/01 08:38:29;;;;;;;;;;;;;;;16.83;48.09;101070.66;5035437;28;1902;-62
2024/03/01 08:40:54;;;;;;;;;;;;;;;16.47;47.89;101074.06;5028595;28;1737;-62
2024/03/01 08:43:20;;;;;;;;;;;;;;;16.33;47.38;101059.97;5035416;28;1356;-61
2024/03/01 08:45:45;;;;;;;;;;;;;;;17.31;47.75;101063.16;5034544;28;1119;-62
2024/03/01 08:48:21;;;;;;;;;;;;;;;16.57;48.59;101065.84;5036173;28;1018;-59
2024/03/01 08:50:50;;;;;;;;;;;;;;;16.31;48.14;101056.66;5039546;28;1051;-60
2024/03/01 08:53:34;;;;;;;;;;;;;;;16.18;47.54;101052.44;5038473;28;1220;-62
2024/03/01 08:56:00;;;;;;;;;;;;;;;17.63;47.47;101051.09;5037042;28;1183;-61
2024/03/01 08:58:26;;;;;;;;;;;;;;;16.77;48.73;101045.94;5037682;28;1906;-58
2024/03/01 09:00:55;;;;;;;;;;;;;;;16.47;48.54;101059.50;5037404;28;1167;-58
2024/03/01 09:03:23;;;;;;;;;;;;;;;16.20;48.04;101041.22;5037101;28;1135;-58
2024/03/01 09:05:49;;;;;;;;;;;;;;;16.83;48.58;101038.53;5037240;28;1028;-59
2024/03/01 09:08:18;;;;;;;;;;;;;;;16.35;48.38;101033.06;5037370;28;929;-59
2024/03/01 09:10:44;;;;;;;;;;;;;;;16.05;48.21;101037.28;5037592;28;1126;-61
2024/03/01 09:13:13;;;;;;;;;;;;;;;17.44;47.95;101040.63;5038480;28;1085;-59
2024/03/01 09:15:39;;;;;;;;;;;;;;;16.62;49.19;101032.13;5037758;28;1076;-59
2024/03/01 09:18:25;;;;;;;;;;;;;;;16.27;48.53;101025.38;5039155;28;1906;-59
2024/03/01 09:20:50;;;;;;;;;;;;;;;16.08;47.92;101023.03;5026608;28;1809;-59
2024/03/01 09:23:16;;;;;;;;;;;;;;;16.90;48.46;101021.81;5036878;28;1191;-59
2024/03/01 09:25:46;;;;;;;;;;;;;;;16.77;49.05;101029.44;5038451;28;1149;-60
2024/03/01 09:28:11;;;;;;;;;;;;;;;16.28;48.81;101018.75;5038454;28;1036;-59
2024/03/01 09:30:37;;;;;;;;;;;;;;;16.05;48.40;101012.59;5038543;28;1163;-59
2024/03/01 09:33:03;;;;;;;;;;;;;;;17.48;48.06;101015.34;5037962;28;850;-59
2024/03/01 09:35:28;;;;;;;;;;;;;;;16.59;49.17;101000.53;5036901;28;985;-60
2024/03/01 09:37:54;;;;;;;;;;;;;;;16.20;48.73;101006.38;5038463;28;1902;-59
2024/03/01 09:40:37;;;;;;;;;;;;;;;17.03;48.76;101015.81;5036927;28;1464;-59
2024/03/01 09:43:15;;;;;;;;;;;;;;;16.50;49.20;101013.13;5038224;28;1059;-57
2024/03/01 09:45:46;;;;;;;;;;;;;;;16.17;48.61;101003.34;5037792;28;1000;-58
2024/03/01 09:48:12;;;;;;;;;;;;;;;17.53;47.91;101002.44;5025396;28;1147;-59
2024/03/01 09:50:45;;;;;;;;;;;;;;;16.99;49.21;101002.91;5038055;28;1091;-59
2024/03/01 09:53:12;;;;;;;;;;;;;;;16.32;49.21;101000.69;5038342;28;999;-59
2024/03/01 09:55:47;;;;;;;;;;;;;;;18.01;47.20;100996.66;5037294;28;1189;-59
2024/03/01 09:58:26;;;;;;;;;;;;;;;16.85;49.20;100992.38;5031866;28;1898;-60
2024/03/01 10:01:03;;;;;;;;;;;;;;;16.48;48.91;100987.88;5032594;28;1064;-58
2024/03/01 10:03:35;;;;;;;;;;;;;;;17.36;48.69;100990.88;5037798;28;1111;-58
2024/03/01 10:06:07;;;;;;;;;;;;;;;16.62;49.12;100982.72;5036774;28;1163;-58
2024/03/01 10:08:35;;;;;;;;;;;;;;;16.32;48.64;100978.72;5037643;28;881;-58
2024/03/01 10:11:01;;;;;;;;;;;;;;;17.42;48.39;100965.84;5037958;28;1107;-60
2024/03/01 10:13:45;;;;;;;;;;;;;;;16.54;49.20;100966.75;5038049;28;1256;-59
2024/03/01 10:16:25;;;;;;;;;;;;;;;16.28;48.47;100954.84;5037813;28;1268;-58
2024/03/01 10:18:50;;;;;;;;;;;;;;;17.20;48.90;100952.38;5033849;28;1973;-57
2024/03/01 10:21:19;;;;;;;;;;;;;;;17.39;48.36;100958.16;5034878;28;987;-60
2024/03/01 10:24:04;;;;;;;;;;;;;;;16.56;48.94;100961.81;5037601;28;1083;-60
2024/03/01 10:26:31;;;;;;;;;;;;;;;16.32;48.13;100965.00;5023773;28;1202;-59
2024/03/01 10:29:06;;;;;;;;;;;;;;;17.31;48.52;100961.47;5037113;28;1174;-61
2024/03/01 10:31:47;;;;;;;;;;;;;;;17.09;49.03;100973.50;5036973;28;1163;-61
2024/03/01 10:34:12;;;;;;;;;;;;;;;16.43;49.26;100965.88;5033229;28;1194;-60
2024/03/01 10:36:44;;;;;;;;;;;;;;;16.95;49.46;100963.34;5036511;28;1342;-58
2024/03/01 10:39:28;;;;;;;;;;;;;;;17.18;48.70;100956.50;5036808;28;1902;-59
2024/03/01 10:42:12;;;;;;;;;;;;;;;16.53;49.09;100960.41;5028603;28;1087;-57
2024/03/01 10:44:41;;;;;;;;;;;;;;;16.23;48.33;100961.94;5030810;28;1059;-57
2024/03/01 10:47:13;;;;;;;;;;;;;;;16.10;48.07;100961.59;5036713;28;1043;-58
2024/03/01 10:49:39;;;;;;;;;;;;;;;16.04;47.31;100955.25;5036588;28;1067;-58
2024/03/01 10:52:08;;;;;;;;;;;;;;;16.22;47.68;100948.50;5029381;28;1246;-58
2024/03/01 10:54:35;;;;;;;;;;;;;;;17.00;48.94;100933.94;5032740;28;1052;-57
2024/03/01 10:57:00;;;;;;;;;;;;;;;16.28;49.29;100930.94;5035317;28;1045;-58
2024/03/01 11:00:01;;;;;;;;;;;;;;;16.72;49.60;100938.00;5036370;28;1902;-58
2024/03/01 11:02:29;;;;;;;;;;;;;;;16.52;49.88;100930.50;4975324;28;1215;-58
2024/03/01 11:05:21;;;;;;;;;;;;;;;16.12;49.42;100927.31;5008415;28;948;-61
2024/03/01 11:08:02;;;;;;;;;;;;;;;17.93;47.55;100923.75;5031178;28;1425;-61
2024/03/01 11:10:35;;;;;;;;;;;;;;;16.72;49.33;100933.31;5023662;28;1024;-62
2024/03/01 11:13:05;;;;;;;;;;;;;;;16.24;49.19;100933.44;5064476;28;1198;-62
2024/03/01 11:15:30;;;;;;;;;;;;;;;16.83;49.08;100933.31;5036356;28;1016;-59
2024/03/01 11:17:56;;;;;;;;;;;;;;;16.80;49.20;100926.44;5022901;28;1914;-59
2024/03/01 11:20:24;;;;;;;;;;;;;;;16.21;48.92;100913.91;5036022;28;1119;-61
2024/03/01 11:22:53;;;;;;;;;;;;;;;16.81;49.41;100910.81;5016982;28;1041;-60
2024/03/01 11:25:19;;;;;;;;;;;;;;;17.65;47.82;100903.16;5061371;28;1443;-59
2024/03/01 11:27:48;;;;;;;;;;;;;;;16.62;49.69;100910.50;5029110;28;1479;-59
2024/03/01 11:30:14;;;;;;;;;;;;;;;16.28;49.05;100911.75;5034991;28;1199;-59
2024/03/01 11:32:41;;;;;;;;;;;;;;;17.94;47.65;100914.41;5061444;28;971;-62
2024/03/01 11:35:11;;;;;;;;;;;;;;;16.80;49.48;100911.91;5036011;28;1088;-59
2024/03/01 11:37:40;;;;;;;;;;;;;;;16.43;49.10;100913.72;5065500;28;1926;-59
2024/03/01 11:40:06;;;;;;;;;;;;;;;16.28;48.54;100910.94;5016604;28;1068;-60
2024/03/01 11:42:45;;;;;;;;;;;;;;;16.08;47.85;100913.31;5032545;28;1226;-59
2024/03/01 11:45:21;;;;;;;;;;;;;;;16.65;48.79;100913.53;5067818;28;1066;-61
2024/03/01 11:47:55;;;;;;;;;;;;;;;16.72;49.35;100903.09;5029591;28;1079;-59
2024/03/01 11:50:30;;;;;;;;;;;;;;;16.21;49.38;100898.25;5048710;28;1204;-59
2024/03/01 11:52:58;;;;;;;;;;;;;;;16.10;48.11;100882.03;5036052;28;1126;-59
2024/03/01 11:55:29;;;;;;;;;;;;;;;15.91;47.82;100874.28;5033693;28;1282;-59
2024/03/01 11:58:13;;;;;;;;;;;;;;;17.40;48.18;100863.63;5054013;28;1981;-59
2024/03/01 12:00:38;;;;;;;;;;;;;;;17.07;49.19;100852.09;5029046;28;1477;-59
2024/03/01 12:03:11;;;;;;;;;;;;;;;16.43;49.32;100862.41;5035778;28;1011;-60
2024/03/01 12:05:39;;;;;;;;;;;;;;;17.53;48.24;100847.63;5022491;28;1063;-59
2024/03/01 12:08:08;;;;;;;;;;;;;;;16.53;49.53;100849.81;5016947;28;1202;-57
2024/03/01 12:10:37;;;;;;;;;;;;;;;16.32;49.00;100852.50;5034095;28;1051;-60
2024/03/01 12:13:07;;;;;;;;;;;;;;;16.16;48.25;100843.41;5018388;28;1120;-61
2024/03/01 12:15:33;;;;;;;;;;;;;;;15.98;48.06;100838.41;5053962;28;1090;-59
2024/03/01 12:17:59;;;;;;;;;;;;;;;17.38;48.53;100840.25;5034742;28;1898;-58
2024/03/01 12:20:25;;;;;;;;;;;;;;;17.02;49.44;100827.34;5023180;28;1211;-60
2024/03/01 12:22:56;;;;;;;;;;;;;;;16.38;49.37;100823.97;5036219;28;1183;-61
2024/03/01 12:25:23;;;;;;;;;;;;;;;16.24;48.67;100814.59;5039159;28;1274;-59
2024/03/01 12:28:09;;;;;;;;;;;;;;;16.46;49.15;100810.81;5038250;28;1132;-59
2024/03/01 12:30:38;;;;;;;;;;;;;;;17.40;48.63;100808.63;5026501;28;1036;-61
2024/03/01 12:33:22;;;;;;;;;;;;;;;16.56;49.63;100808.09;5039409;28;1036;-62
2024/03/01 12:36:06;;;;;;;;;;;;;;;16.25;49.11;100799.78;5029696;28;1182;-61
2024/03/01 12:38:51;;;;;;;;;;;;;;;16.18;48.17;100807.47;5034501;28;1886;-61
2024/03/01 12:41:43;;;;;;;;;;;;;;;17.40;48.55;100814.13;5038767;28;1135;-61
2024/03/01 12:44:13;;;;;;;;;;;;;;;16.57;49.63;100812.47;5037252;28;1905;-60
2024/03/01 12:46:41;;;;;;;;;;;;;;;16.22;49.00;100797.59;5041066;28;1269;-59
2024/03/01 12:49:18;;;;;;;;;;;;;;;16.08;48.76;100806.31;5039059;28;1216;-60
2024/03/01 12:51:56;;;;;;;;;;;;;;;16.01;47.95;100807.69;5038918;28;1254;-62